sensor_id;sensor_type;location;lat;lon;timestamp;temperature;humidity
3202;DHT22;34843;48.744;8.958;2024-03-23T00:52:11;5.90;99.90
3202;DHT22;34843;48.744;8.958;2024-03-23T00:54:37;5.90;99.90
3202;DHT22;34843;48.744;8.958;2024-03-23T00:57:02;5.90;99.90
3202;DHT22;34843;48.744;8.958;2024-03-23T00:59:28;5.80;99.90
3202;DHT22;34843;48.744;8.958;2024-03-23T01:01:54;5.90;99.90
3202;DHT22;34843;48.744;8.958;2024-03-23T01:04:20;5.80;99.90
3202;DHT22;34843;48.744;8.958;2024-03-23T01:06:45;5.90;99.90
3202;DHT22;34843;48.744;8.958;2024-03-23T01:09:11;6.00;99.90
3202;DHT22;34843;48.744;8.958;2024-03-23T01:11:37;6.00;99.90
3202;DHT22;34843;48.744;8.958;2024-03-23T01:14:03;6.10;99.90
3202;DHT22;34843;48.744;8.958;2024-03-23T01:16:28;6.20;99.90
3202;DHT22;34843;48.744;8.958;2024-03-23T01:18:54;6.30;99.90
3202;DHT22;34843;48.744;8.958;2024-03-23T01:21:19;6.30;99.90
3202;DHT22;34843;48.744;8.958;2024-03-23T01:23:45;6.40;99.90
3202;DHT22;34843;48.744;8.958;2024-03-23T01:26:10;6.60;99.90
3202;DHT22;34843;48.744;8.958;2024-03-23T01:28:36;6.60;99.90
3202;DHT22;34843;48.744;8.958;2024-03-23T01:31:02;6.70;99.90
3202;DHT22;34843;48.744;8.958;2024-03-23T01:33:27;6.80;99.90
3202;DHT22;34843;48.744;8.958;2024-03-23T01:35:53;7.10;99.90
3202;DHT22;34843;48.744;8.958;2024-03-23T01:38:18;7.10;99.90
3202;DHT22;34843;48.744;8.958;2024-03-23T01:40:44;7.30;99.90
3202;DHT22;34843;48.744;8.958;2024-03-23T01:43:09;7.50;99.90
3202;DHT22;34843;48.744;8.958;2024-03-23T01:45:35;7.70;99.90
3202;DHT22;34843;48.744;8.958;2024-03-23T01:48:01;7.70;99.90
3202;DHT22;34843;48.744;8.958;2024-03-23T01:50:27;7.80;99.90
3202;DHT22;34843;48.744;8.958;2024-03-23T01:52:53;7.90;99.90
3202;DHT22;34843;48.744;8.958;2024-03-23T01:55:19;8.10;99.90
3202;DHT22;34843;48.744;8.958;2024-03-23T02:00:11;8.20;99.90
3202;DHT22;34843;48.744;8.958;2024-03-23T02:02:47;8.30;99.90
3202;DHT22;34843;48.744;8.958;2024-03-23T02:05:13;8.20;99.90
3202;DHT22;34843;48.744;8.958;2024-03-23T02:07:42;8.20;99.90
3202;DHT22;34843;48.744;8.958;2024-03-23T02:10:11;8.20;99.90
3202;DHT22;34843;48.744;8.958;2024-03-23T02:12:38;8.10;99.90
3202;DHT22;34843;48.744;8.958;2024-03-23T02:15:04;8.00;99.90
3202;DHT22;34843;48.744;8.958;2024-03-23T02:17:31;8.00;99.90
3202;DHT22;34843;48.744;8.958;2024-03-23T02:19:57;7.90;99.90
3202;DHT22;34843;48.744;8.958;2024-03-23T02:22:22;7.90;99.90
3202;DHT22;34843;48.744;8.958;2024-03-23T02:24:48;7.90;99.90
3202;DHT22;34843;48.744;8.958;2024-03-23T02:27:14;7.80;99.90
3202;DHT22;34843;48.744;8.958;2024-03-23T02:29:39;7.90;99.90
3202;DHT22;34843;48.744;8.958;2024-03-23T02:32:05;7.80;99.90
3202;DHT22;34843;48.744;8.958;2024-03-23T02:34:31;7.80;99.90
3202;DHT22;34843;48.744;8.958;2024-03-23T02:36:56;7.70;99.90
3202;DHT22;34843;48.744;8.958;2024-03-23T02:39:22;7.70;99.90
3202;DHT22;34843;48.744;8.958;2024-03-23T02:41:48;7.70;99.90
3202;DHT22;34843;48.744;8.958;2024-03-23T02:44:13;7.60;99.90
3202;DHT22;34843;48.744;8.958;2024-03-23T02:46:39;7.60;99.90
3202;DHT22;34843;48.744;8.958;2024-03-23T02:49:04;7.70;99.90
3202;DHT22;34843;48.744;8.958;2024-03-23T02:51:30;7.70;99.90
3202;DHT22;34843;48.744;8.958;2024-03-23T02:53:56;7.70;99.90
3202;DHT22;34843;48.744;8.958;2024-03-23T02:56:21;7.60;99.90
3202;DHT22;34843;48.744;8.958;2024-03-23T02:58:47;7.50;99.90
3202;DHT22;34843;48.744;8.958;2024-03-23T03:01:13;7.50;99.90
3202;DHT22;34843;48.744;8.958;2024-03-23T03:03:38;7.50;99.90
3202;DHT22;34843;48.744;8.958;2024-03-23T03:06:04;7.40;99.90
3202;DHT22;34843;48.744;8.958;2024-03-23T03:08:29;7.40;99.90
3202;DHT22;34843;48.744;8.958;2024-03-23T03:10:55;7.30;99.90
3202;DHT22;34843;48.744;8.958;2024-03-23T03:13:20;7.20;99.90
3202;DHT22;34843;48.744;8.958;2024-03-23T03:15:46;7.10;99.90
3202;DHT22;34843;48.744;8.958;2024-03-23T03:18:11;7.10;99.90
3202;DHT22;34843;48.744;8.958;2024-03-23T03:20:38;7.10;99.90
3202;DHT22;34843;48.744;8.958;2024-03-23T03:23:05;7.10;99.90
3202;DHT22;34843;48.744;8.958;2024-03-23T03:25:30;7.00;99.90
3202;DHT22;34843;48.744;8.958;2024-03-23T03:27:56;7.10;99.90
3202;DHT22;34843;48.744;8.958;2024-03-23T03:30:21;7.10;99.90
3202;DHT22;34843;48.744;8.958;2024-03-23T03:32:47;7.10;99.90
3202;DHT22;34843;48.744;8.958;2024-03-23T03:35:12;7.20;99.90
3202;DHT22;34843;48.744;8.958;2024-03-23T03:37:38;7.20;99.90
3202;DHT22;34843;48.744;8.958;2024-03-23T03:40:04;7.30;99.90
3202;DHT22;34843;48.744;8.958;2024-03-23T03:42:29;7.30;99.90
3202;DHT22;34843;48.744;8.958;2024-03-23T03:44:55;7.50;99.90
3202;DHT22;34843;48.744;8.958;2024-03-23T03:47:20;7.40;99.90
3202;DHT22;34843;48.744;8.958;2024-03-23T03:49:47;7.60;99.90
3202;DHT22;34843;48.744;8.958;2024-03-23T03:52:12;7.70;99.90
3202;DHT22;34843;48.744;8.958;2024-03-23T03:54:38;7.80;99.90
3202;DHT22;34843;48.744;8.958;2024-03-23T03:57:04;7.90;99.90
3202;DHT22;34843;48.744;8.958;2024-03-23T03:59:29;8.00;99.90
3202;DHT22;34843;48.744;8.958;2024-03-23T04:01:55;8.00;99.90
3202;DHT22;34843;48.744;8.958;2024-03-23T04:04:20;8.10;99.90
3202;DHT22;34843;48.744;8.958;2024-03-23T04:06:47;8.10;99.90
3202;DHT22;34843;48.744;8.958;2024-03-23T04:09:13;8.20;99.90
3202;DHT22;34843;48.744;8.958;2024-03-23T04:11:38;8.20;99.90
3202;DHT22;34843;48.744;8.958;2024-03-23T04:14:04;8.30;99.90
3202;DHT22;34843;48.744;8.958;2024-03-23T04:16:34;8.30;99.90
3202;DHT22;34843;48.744;8.958;2024-03-23T04:19:00;8.40;99.90
3202;DHT22;34843;48.744;8.958;2024-03-23T04:21:25;8.50;99.90
3202;DHT22;34843;48.744;8.958;2024-03-23T04:23:51;8.50;99.90
3202;DHT22;34843;48.744;8.958;2024-03-23T04:26:17;8.40;99.90
3202;DHT22;34843;48.744;8.958;2024-03-23T04:28:42;8.40;99.90
3202;DHT22;34843;48.744;8.958;2024-03-23T04:31:08;8.40;99.90
3202;DHT22;34843;48.744;8.958;2024-03-23T04:33:34;8.50;99.90
3202;DHT22;34843;48.744;8.958;2024-03-23T04:35:59;8.50;99.90
3202;DHT22;34843;48.744;8.958;2024-03-23T04:38:25;8.50;99.90
3202;DHT22;34843;48.744;8.958;2024-03-23T04:40:57;8.50;99.90
3202;DHT22;34843;48.744;8.958;2024-03-23T04:43:23;8.50;99.90
3202;DHT22;34843;48.744;8.958;2024-03-23T04:45:49;8.60;99.90
3202;DHT22;34843;48.744;8.958;2024-03-23T04:48:15;8.50;99.90
3202;DHT22;34843;48.744;8.958;2024-03-23T04:50:40;8.60;99.90
3202;DHT22;34843;48.744;8.958;2024-03-23T04:53:06;8.60;99.90
3202;DHT22;34843;48.744;8.958;2024-03-23T04:55:32;8.70;99.90
3202;DHT22;34843;48.744;8.958;2024-03-23T04:57:57;8.80;99.90
3202;DHT22;34843;48.744;8.958;2024-03-23T05:00:23;8.80;99.90
3202;DHT22;34843;48.744;8.958;2024-03-23T05:02:49;8.70;99.90
3202;DHT22;34843;48.744;8.958;2024-03-23T05:05:14;8.80;99.90
3202;DHT22;34843;48.744;8.958;2024-03-23T05:07:40;8.80;99.90
3202;DHT22;34843;48.744;8.958;2024-03-23T05:10:08;8.80;99.90
3202;DHT22;34843;48.744;8.958;2024-03-23T05:12:36;8.80;99.90
3202;DHT22;34843;48.744;8.958;2024-03-23T05:15:02;8.80;99.90
3202;DHT22;34843;48.744;8.958;2024-03-23T05:17:28;8.90;99.90
3202;DHT22;34843;48.744;8.958;2024-03-23T05:19:54;8.90;99.90
3202;DHT22;34843;48.744;8.958;2024-03-23T05:22:19;8.90;99.90
3202;DHT22;34843;48.744;8.958;2024-03-23T05:24:45;8.80;99.90
3202;DHT22;34843;48.744;8.958;2024-03-23T05:27:11;8.80;99.90
3202;DHT22;34843;48.744;8.958;2024-03-23T05:29:36;8.70;99.90
3202;DHT22;34843;48.744;8.958;2024-03-23T05:32:02;8.70;99.90
3202;DHT22;34843;48.744;8.958;2024-03-23T05:34:28;8.60;99.90
3202;DHT22;34843;48.744;8.958;2024-03-23T05:36:54;8.60;99.90
3202;DHT22;34843;48.744;8.958;2024-03-23T05:39:20;8.60;99.90
3202;DHT22;34843;48.744;8.958;2024-03-23T05:41:47;8.60;99.90
3202;DHT22;34843;48.744;8.958;2024-03-23T05:44:13;8.50;99.90
3202;DHT22;34843;48.744;8.958;2024-03-23T05:46:39;8.50;99.90
3202;DHT22;34843;48.744;8.958;2024-03-23T05:49:04;8.40;99.90
3202;DHT22;34843;48.744;8.958;2024-03-23T05:51:30;8.40;99.90
3202;DHT22;34843;48.744;8.958;2024-03-23T05:53:55;8.50;99.90
3202;DHT22;34843;48.744;8.958;2024-03-23T05:56:21;8.30;99.90
3202;DHT22;34843;48.744;8.958;2024-03-23T05:58:46;8.20;99.90
3202;DHT22;34843;48.744;8.958;2024-03-23T06:01:12;8.20;99.90
3202;DHT22;34843;48.744;8.958;2024-03-23T06:03:38;8.10;99.90
3202;DHT22;34843;48.744;8.958;2024-03-23T06:06:04;8.10;99.90
3202;DHT22;34843;48.744;8.958;2024-03-23T06:08:29;8.00;99.90
3202;DHT22;34843;48.744;8.958;2024-03-23T06:10:55;8.00;99.90
3202;DHT22;34843;48.744;8.958;2024-03-23T06:13:21;8.00;99.90
3202;DHT22;34843;48.744;8.958;2024-03-23T06:15:50;7.90;99.90
3202;DHT22;34843;48.744;8.958;2024-03-23T06:18:15;7.90;99.90
3202;DHT22;34843;48.744;8.958;2024-03-23T06:20:41;7.90;99.90
3202;DHT22;34843;48.744;8.958;2024-03-23T06:23:06;8.00;99.90
3202;DHT22;34843;48.744;8.958;2024-03-23T06:25:32;7.90;99.90
3202;DHT22;34843;48.744;8.958;2024-03-23T06:27:58;8.00;99.90
3202;DHT22;34843;48.744;8.958;2024-03-23T06:30:24;8.00;99.90
3202;DHT22;34843;48.744;8.958;2024-03-23T06:32:49;8.00;99.90
3202;DHT22;34843;48.744;8.958;2024-03-23T06:35:15;7.90;99.90
3202;DHT22;34843;48.744;8.958;2024-03-23T06:37:40;7.90;99.90
3202;DHT22;34843;48.744;8.958;2024-03-23T06:40:07;7.90;99.90
3202;DHT22;34843;48.744;8.958;2024-03-23T06:42:35;7.90;99.90
3202;DHT22;34843;48.744;8.958;2024-03-23T06:45:00;7.90;99.90
3202;DHT22;34843;48.744;8.958;2024-03-23T06:47:26;7.90;99.90
3202;DHT22;34843;48.744;8.958;2024-03-23T06:49:51;7.80;99.90
3202;DHT22;34843;48.744;8.958;2024-03-23T06:52:17;7.80;99.90
3202;DHT22;34843;48.744;8.958;2024-03-23T06:54:43;7.90;99.90
3202;DHT22;34843;48.744;8.958;2024-03-23T06:57:10;7.90;99.90
3202;DHT22;34843;48.744;8.958;2024-03-23T06:59:37;8.00;99.90
3202;DHT22;34843;48.744;8.958;2024-03-23T07:02:04;8.00;99.90
3202;DHT22;34843;48.744;8.958;2024-03-23T07:04:29;8.00;99.90
3202;DHT22;34843;48.744;8.958;2024-03-23T07:06:55;8.10;99.90
3202;DHT22;34843;48.744;8.958;2024-03-23T07:09:20;8.00;99.90
3202;DHT22;34843;48.744;8.958;2024-03-23T07:11:50;7.90;99.90
3202;DHT22;34843;48.744;8.958;2024-03-23T07:14:15;8.30;99.90
3202;DHT22;34843;48.744;8.958;2024-03-23T07:16:41;8.00;99.90
3202;DHT22;34843;48.744;8.958;2024-03-23T07:19:06;8.00;99.90
3202;DHT22;34843;48.744;8.958;2024-03-23T07:21:32;8.00;99.90
3202;DHT22;34843;48.744;8.958;2024-03-23T07:23:57;7.90;99.90
3202;DHT22;34843;48.744;8.958;2024-03-23T07:26:23;7.70;99.90
3202;DHT22;34843;48.744;8.958;2024-03-23T07:28:48;7.60;99.90
3202;DHT22;34843;48.744;8.958;2024-03-23T07:31:14;7.60;99.90
3202;DHT22;34843;48.744;8.958;2024-03-23T07:33:45;7.60;99.90
3202;DHT22;34843;48.744;8.958;2024-03-23T07:36:10;7.60;99.90
3202;DHT22;34843;48.744;8.958;2024-03-23T07:38:36;7.60;99.90
3202;DHT22;34843;48.744;8.958;2024-03-23T07:41:05;7.80;99.90
3202;DHT22;34843;48.744;8.958;2024-03-23T07:43:31;7.60;99.90
3202;DHT22;34843;48.744;8.958;2024-03-23T07:45:58;7.60;99.90
3202;DHT22;34843;48.744;8.958;2024-03-23T07:48:23;7.60;99.90
3202;DHT22;34843;48.744;8.958;2024-03-23T07:51:03;7.60;99.90
3202;DHT22;34843;48.744;8.958;2024-03-23T07:53:29;7.60;99.90
3202;DHT22;34843;48.744;8.958;2024-03-23T07:58:22;7.50;99.90
3202;DHT22;34843;48.744;8.958;2024-03-23T08:00:47;7.50;99.90
3202;DHT22;34843;48.744;8.958;2024-03-23T08:03:13;7.30;99.90
3202;DHT22;34843;48.744;8.958;2024-03-23T08:05:39;7.40;99.90
3202;DHT22;34843;48.744;8.958;2024-03-23T08:08:04;7.40;99.90
3202;DHT22;34843;48.744;8.958;2024-03-23T08:10:30;7.50;99.90
3202;DHT22;34843;48.744;8.958;2024-03-23T08:12:55;7.70;99.90
3202;DHT22;34843;48.744;8.958;2024-03-23T08:15:21;7.60;99.90
3202;DHT22;34843;48.744;8.958;2024-03-23T08:17:46;7.80;99.90
3202;DHT22;34843;48.744;8.958;2024-03-23T08:20:12;7.80;99.90
3202;DHT22;34843;48.744;8.958;2024-03-23T08:22:37;8.00;99.90
3202;DHT22;34843;48.744;8.958;2024-03-23T08:25:03;8.10;99.90
3202;DHT22;34843;48.744;8.958;2024-03-23T08:27:29;8.20;99.90
3202;DHT22;34843;48.744;8.958;2024-03-23T08:29:54;8.20;99.90
3202;DHT22;34843;48.744;8.958;2024-03-23T08:32:20;8.20;99.90
3202;DHT22;34843;48.744;8.958;2024-03-23T08:34:45;8.20;99.90
3202;DHT22;34843;48.744;8.958;2024-03-23T08:37:11;8.20;99.90
3202;DHT22;34843;48.744;8.958;2024-03-23T08:39:36;8.10;99.90
3202;DHT22;34843;48.744;8.958;2024-03-23T08:42:02;8.30;99.90
3202;DHT22;34843;48.744;8.958;2024-03-23T08:44:28;8.00;99.90
3202;DHT22;34843;48.744;8.958;2024-03-23T08:46:56;7.90;99.90
3202;DHT22;34843;48.744;8.958;2024-03-23T08:49:21;8.00;99.90
3202;DHT22;34843;48.744;8.958;2024-03-23T08:51:47;8.20;99.90
3202;DHT22;34843;48.744;8.958;2024-03-23T08:54:12;8.30;99.90
3202;DHT22;34843;48.744;8.958;2024-03-23T08:56:38;8.60;99.90
3202;DHT22;34843;48.744;8.958;2024-03-23T08:59:03;9.20;99.90
3202;DHT22;34843;48.744;8.958;2024-03-23T09:01:29;9.20;99.90
3202;DHT22;34843;48.744;8.958;2024-03-23T09:03:54;9.20;99.90
3202;DHT22;34843;48.744;8.958;2024-03-23T09:06:21;9.00;99.90
3202;DHT22;34843;48.744;8.958;2024-03-23T09:08:46;8.90;99.90
3202;DHT22;34843;48.744;8.958;2024-03-23T09:11:13;8.90;99.90
3202;DHT22;34843;48.744;8.958;2024-03-23T09:13:39;8.80;99.90
3202;DHT22;34843;48.744;8.958;2024-03-23T09:16:06;8.80;99.90
3202;DHT22;34843;48.744;8.958;2024-03-23T09:18:33;8.60;99.90
3202;DHT22;34843;48.744;8.958;2024-03-23T09:20:59;8.80;99.90
3202;DHT22;34843;48.744;8.958;2024-03-23T09:23:24;8.60;99.90
3202;DHT22;34843;48.744;8.958;2024-03-23T09:25:50;8.70;99.90
3202;DHT22;34843;48.744;8.958;2024-03-23T09:28:15;9.10;99.90
3202;DHT22;34843;48.744;8.958;2024-03-23T09:30:41;9.10;99.90
3202;DHT22;34843;48.744;8.958;2024-03-23T09:33:10;9.40;99.90
3202;DHT22;34843;48.744;8.958;2024-03-23T09:35:39;9.90;99.90
3202;DHT22;34843;48.744;8.958;2024-03-23T09:38:05;9.70;99.90
3202;DHT22;34843;48.744;8.958;2024-03-23T09:40:32;9.70;99.90
3202;DHT22;34843;48.744;8.958;2024-03-23T09:42:58;9.50;99.90
3202;DHT22;34843;48.744;8.958;2024-03-23T09:45:28;9.40;99.90
3202;DHT22;34843;48.744;8.958;2024-03-23T09:47:55;9.20;99.90
3202;DHT22;34843;48.744;8.958;2024-03-23T09:50:21;9.20;99.90
3202;DHT22;34843;48.744;8.958;2024-03-23T09:52:46;9.70;99.90
3202;DHT22;34843;48.744;8.958;2024-03-23T09:55:12;9.90;99.90
3202;DHT22;34843;48.744;8.958;2024-03-23T09:57:39;10.00;99.90
3202;DHT22;34843;48.744;8.958;2024-03-23T10:00:05;10.00;99.90
3202;DHT22;34843;48.744;8.958;2024-03-23T10:02:31;10.00;99.90
3202;DHT22;34843;48.744;8.958;2024-03-23T10:04:58;10.30;99.90
3202;DHT22;34843;48.744;8.958;2024-03-23T10:07:23;9.70;99.90
3202;DHT22;34843;48.744;8.958;2024-03-23T10:09:49;9.60;99.90
3202;DHT22;34843;48.744;8.958;2024-03-23T10:12:18;9.60;99.90
3202;DHT22;34843;48.744;8.958;2024-03-23T10:14:44;9.50;99.90
3202;DHT22;34843;48.744;8.958;2024-03-23T10:17:13;9.70;99.90
3202;DHT22;34843;48.744;8.958;2024-03-23T10:19:40;9.80;99.90
3202;DHT22;34843;48.744;8.958;2024-03-23T10:22:06;9.90;99.90
3202;DHT22;34843;48.744;8.958;2024-03-23T10:24:32;9.80;99.90
3202;DHT22;34843;48.744;8.958;2024-03-23T10:26:58;10.00;99.90
3202;DHT22;34843;48.744;8.958;2024-03-23T10:29:23;9.40;99.90
3202;DHT22;34843;48.744;8.958;2024-03-23T10:31:49;9.50;99.90
3202;DHT22;34843;48.744;8.958;2024-03-23T10:34:15;9.60;99.90
3202;DHT22;34843;48.744;8.958;2024-03-23T10:36:41;9.30;99.90
3202;DHT22;34843;48.744;8.958;2024-03-23T10:39:07;9.20;99.90
3202;DHT22;34843;48.744;8.958;2024-03-23T10:41:33;8.70;99.90
3202;DHT22;34843;48.744;8.958;2024-03-23T10:43:59;8.10;99.90
3202;DHT22;34843;48.744;8.958;2024-03-23T10:46:26;7.70;99.90
3202;DHT22;34843;48.744;8.958;2024-03-23T10:48:52;6.90;99.90
3202;DHT22;34843;48.744;8.958;2024-03-23T10:51:18;5.60;99.90
3202;DHT22;34843;48.744;8.958;2024-03-23T10:53:45;5.00;99.90
3202;DHT22;34843;48.744;8.958;2024-03-23T10:56:12;5.10;99.90
3202;DHT22;34843;48.744;8.958;2024-03-23T10:58:41;4.60;99.90
3202;DHT22;34843;48.744;8.958;2024-03-23T11:01:11;4.70;99.90
3202;DHT22;34843;48.744;8.958;2024-03-23T11:03:38;5.00;99.90
3202;DHT22;34843;48.744;8.958;2024-03-23T11:06:05;5.30;99.90
3202;DHT22;34843;48.744;8.958;2024-03-23T11:08:35;5.50;99.90
3202;DHT22;34843;48.744;8.958;2024-03-23T11:11:21;5.70;99.90
3202;DHT22;34843;48.744;8.958;2024-03-23T11:13:51;6.10;99.90
3202;DHT22;34843;48.744;8.958;2024-03-23T11:16:28;6.40;99.90
3202;DHT22;34843;48.744;8.958;2024-03-23T11:19:34;6.80;99.90
3202;DHT22;34843;48.744;8.958;2024-03-23T11:22:00;7.10;99.90
3202;DHT22;34843;48.744;8.958;2024-03-23T11:24:26;7.10;99.90
3202;DHT22;34843;48.744;8.958;2024-03-23T11:26:52;7.50;99.90
3202;DHT22;34843;48.744;8.958;2024-03-23T11:29:18;7.20;99.90
3202;DHT22;34843;48.744;8.958;2024-03-23T11:31:48;7.30;99.90
3202;DHT22;34843;48.744;8.958;2024-03-23T11:34:15;7.30;99.90
3202;DHT22;34843;48.744;8.958;2024-03-23T11:36:41;7.50;99.90
3202;DHT22;34843;48.744;8.958;2024-03-23T11:39:17;7.90;99.90
3202;DHT22;34843;48.744;8.958;2024-03-23T11:41:50;8.80;99.90
3202;DHT22;34843;48.744;8.958;2024-03-23T11:44:19;8.70;99.90
3202;DHT22;34843;48.744;8.958;2024-03-23T11:46:46;9.00;99.90
3202;DHT22;34843;48.744;8.958;2024-03-23T11:49:28;9.20;99.90
3202;DHT22;34843;48.744;8.958;2024-03-23T11:51:56;9.40;99.90
3202;DHT22;34843;48.744;8.958;2024-03-23T11:54:23;9.40;99.90
3202;DHT22;34843;48.744;8.958;2024-03-23T11:57:01;9.60;99.90
3202;DHT22;34843;48.744;8.958;2024-03-23T12:01:56;9.20;99.90
3202;DHT22;34843;48.744;8.958;2024-03-23T12:04:30;9.20;99.90
3202;DHT22;34843;48.744;8.958;2024-03-23T12:07:17;9.00;99.90
3202;DHT22;34843;48.744;8.958;2024-03-23T12:09:46;9.20;99.90
3202;DHT22;34843;48.744;8.958;2024-03-23T12:12:17;9.00;99.90
3202;DHT22;34843;48.744;8.958;2024-03-23T12:14:43;9.00;99.90
3202;DHT22;34843;48.744;8.958;2024-03-23T12:17:14;9.20;99.90
3202;DHT22;34843;48.744;8.958;2024-03-23T12:19:40;9.50;99.90
3202;DHT22;34843;48.744;8.958;2024-03-23T12:22:07;9.70;99.90
3202;DHT22;34843;48.744;8.958;2024-03-23T12:24:34;9.80;99.90
3202;DHT22;34843;48.744;8.958;2024-03-23T12:27:03;9.70;99.90
3202;DHT22;34843;48.744;8.958;2024-03-23T12:29:30;9.70;99.90
3202;DHT22;34843;48.744;8.958;2024-03-23T12:31:59;9.80;99.90
3202;DHT22;34843;48.744;8.958;2024-03-23T12:34:25;9.80;99.90
3202;DHT22;34843;48.744;8.958;2024-03-23T12:36:51;9.50;99.90
3202;DHT22;34843;48.744;8.958;2024-03-23T12:39:16;9.40;99.90
3202;DHT22;34843;48.744;8.958;2024-03-23T12:41:41;9.10;99.90
3202;DHT22;34843;48.744;8.958;2024-03-23T12:44:07;9.10;99.90
3202;DHT22;34843;48.744;8.958;2024-03-23T12:46:34;9.00;99.90
3202;DHT22;34843;48.744;8.958;2024-03-23T12:49:00;9.00;99.90
3202;DHT22;34843;48.744;8.958;2024-03-23T12:51:25;9.20;99.90
3202;DHT22;34843;48.744;8.958;2024-03-23T12:53:51;9.50;99.90
3202;DHT22;34843;48.744;8.958;2024-03-23T12:56:16;9.60;99.90
3202;DHT22;34843;48.744;8.958;2024-03-23T12:58:42;9.60;99.90
3202;DHT22;34843;48.744;8.958;2024-03-23T13:01:07;9.40;99.90
3202;DHT22;34843;48.744;8.958;2024-03-23T13:03:33;9.30;99.90
3202;DHT22;34843;48.744;8.958;2024-03-23T13:05:58;9.20;99.90
3202;DHT22;34843;48.744;8.958;2024-03-23T13:08:24;9.40;99.90
3202;DHT22;34843;48.744;8.958;2024-03-23T13:10:52;9.40;99.90
3202;DHT22;34843;48.744;8.958;2024-03-23T13:13:18;9.30;99.90
3202;DHT22;34843;48.744;8.958;2024-03-23T13:15:50;9.30;99.90
3202;DHT22;34843;48.744;8.958;2024-03-23T13:18:15;9.40;99.90
3202;DHT22;34843;48.744;8.958;2024-03-23T13:20:41;9.40;99.90
3202;DHT22;34843;48.744;8.958;2024-03-23T13:23:06;9.30;99.90
3202;DHT22;34843;48.744;8.958;2024-03-23T13:25:32;9.30;99.90
3202;DHT22;34843;48.744;8.958;2024-03-23T13:27:58;9.30;99.90
3202;DHT22;34843;48.744;8.958;2024-03-23T13:30:24;9.40;99.90
3202;DHT22;34843;48.744;8.958;2024-03-23T13:32:49;9.60;99.90
3202;DHT22;34843;48.744;8.958;2024-03-23T13:35:15;9.60;99.90
3202;DHT22;34843;48.744;8.958;2024-03-23T13:37:41;9.50;99.90
3202;DHT22;34843;48.744;8.958;2024-03-23T13:40:07;9.50;99.90
3202;DHT22;34843;48.744;8.958;2024-03-23T13:42:33;9.60;99.90
3202;DHT22;34843;48.744;8.958;2024-03-23T13:44:59;7.50;99.90
3202;DHT22;34843;48.744;8.958;2024-03-23T13:47:24;9.90;99.90
3202;DHT22;34843;48.744;8.958;2024-03-23T13:49:49;9.90;99.90
3202;DHT22;34843;48.744;8.958;2024-03-23T13:52:16;9.90;99.90
3202;DHT22;34843;48.744;8.958;2024-03-23T13:54:41;10.00;99.90
3202;DHT22;34843;48.744;8.958;2024-03-23T13:57:11;9.90;99.90
3202;DHT22;34843;48.744;8.958;2024-03-23T13:59:37;9.70;99.90
3202;DHT22;34843;48.744;8.958;2024-03-23T14:02:02;9.20;99.90
3202;DHT22;34843;48.744;8.958;2024-03-23T14:04:28;9.10;99.90
3202;DHT22;34843;48.744;8.958;2024-03-23T14:06:54;8.30;99.90
3202;DHT22;34843;48.744;8.958;2024-03-23T14:09:19;7.60;99.90
3202;DHT22;34843;48.744;8.958;2024-03-23T14:11:48;7.10;99.90
3202;DHT22;34843;48.744;8.958;2024-03-23T14:14:14;7.10;99.90
3202;DHT22;34843;48.744;8.958;2024-03-23T14:16:43;7.20;99.90
3202;DHT22;34843;48.744;8.958;2024-03-23T14:19:09;7.30;99.90
3202;DHT22;34843;48.744;8.958;2024-03-23T14:21:34;7.20;99.90
3202;DHT22;34843;48.744;8.958;2024-03-23T14:24:00;7.10;99.90
3202;DHT22;34843;48.744;8.958;2024-03-23T14:26:27;7.00;99.90
3202;DHT22;34843;48.744;8.958;2024-03-23T14:28:52;6.80;99.90
3202;DHT22;34843;48.744;8.958;2024-03-23T14:31:18;6.70;99.90
3202;DHT22;34843;48.744;8.958;2024-03-23T14:33:43;6.50;99.90
3202;DHT22;34843;48.744;8.958;2024-03-23T14:36:16;6.60;99.90
3202;DHT22;34843;48.744;8.958;2024-03-23T14:38:46;6.70;99.90
3202;DHT22;34843;48.744;8.958;2024-03-23T14:41:12;6.70;99.90
3202;DHT22;34843;48.744;8.958;2024-03-23T14:43:37;6.60;99.90
3202;DHT22;34843;48.744;8.958;2024-03-23T14:46:13;6.50;99.90
3202;DHT22;34843;48.744;8.958;2024-03-23T14:48:39;6.60;99.90
3202;DHT22;34843;48.744;8.958;2024-03-23T14:51:05;6.70;99.90
3202;DHT22;34843;48.744;8.958;2024-03-23T14:53:35;6.60;99.90
3202;DHT22;34843;48.744;8.958;2024-03-23T14:56:01;6.50;99.90
3202;DHT22;34843;48.744;8.958;2024-03-23T14:58:28;6.40;99.90
3202;DHT22;34843;48.744;8.958;2024-03-23T15:01:00;6.40;99.90
3202;DHT22;34843;48.744;8.958;2024-03-23T15:03:25;6.60;99.90
3202;DHT22;34843;48.744;8.958;2024-03-23T15:05:53;6.70;99.90
3202;DHT22;34843;48.744;8.958;2024-03-23T15:08:18;6.80;99.90
3202;DHT22;34843;48.744;8.958;2024-03-23T15:10:44;6.70;99.90
3202;DHT22;34843;48.744;8.958;2024-03-23T15:13:09;6.60;99.90
3202;DHT22;34843;48.744;8.958;2024-03-23T15:15:41;6.60;99.90
3202;DHT22;34843;48.744;8.958;2024-03-23T15:18:10;6.50;99.90
3202;DHT22;34843;48.744;8.958;2024-03-23T15:20:35;6.50;99.90
3202;DHT22;34843;48.744;8.958;2024-03-23T15:23:04;6.70;99.90
3202;DHT22;34843;48.744;8.958;2024-03-23T15:25:30;6.70;99.90
3202;DHT22;34843;48.744;8.958;2024-03-23T15:27:57;6.60;99.90
3202;DHT22;34843;48.744;8.958;2024-03-23T15:30:24;6.60;99.90
3202;DHT22;34843;48.744;8.958;2024-03-23T15:32:50;6.60;99.90
3202;DHT22;34843;48.744;8.958;2024-03-23T15:35:15;6.50;99.90
3202;DHT22;34843;48.744;8.958;2024-03-23T15:37:40;6.50;99.90
3202;DHT22;34843;48.744;8.958;2024-03-23T15:40:07;6.60;99.90
3202;DHT22;34843;48.744;8.958;2024-03-23T15:42:32;6.70;99.90
3202;DHT22;34843;48.744;8.958;2024-03-23T15:44:58;6.80;99.90
3202;DHT22;34843;48.744;8.958;2024-03-23T15:47:23;6.80;99.90
3202;DHT22;34843;48.744;8.958;2024-03-23T15:49:49;6.80;99.90
3202;DHT22;34843;48.744;8.958;2024-03-23T15:52:15;7.10;99.90
3202;DHT22;34843;48.744;8.958;2024-03-23T15:54:42;7.10;99.90
3202;DHT22;34843;48.744;8.958;2024-03-23T15:57:08;7.20;99.90
3202;DHT22;34843;48.744;8.958;2024-03-23T15:59:33;7.20;99.90
3202;DHT22;34843;48.744;8.958;2024-03-23T16:01:59;7.20;99.90
3202;DHT22;34843;48.744;8.958;2024-03-23T16:04:24;7.10;99.90
3202;DHT22;34843;48.744;8.958;2024-03-23T16:06:50;7.00;99.90
3202;DHT22;34843;48.744;8.958;2024-03-23T16:09:15;6.90;99.90
3202;DHT22;34843;48.744;8.958;2024-03-23T16:11:41;6.70;99.90
3202;DHT22;34843;48.744;8.958;2024-03-23T16:14:07;6.60;99.90
3202;DHT22;34843;48.744;8.958;2024-03-23T16:16:32;6.40;99.90
3202;DHT22;34843;48.744;8.958;2024-03-23T16:18:58;6.40;99.90
3202;DHT22;34843;48.744;8.958;2024-03-23T16:21:23;6.20;99.90
3202;DHT22;34843;48.744;8.958;2024-03-23T16:23:49;6.20;99.90
3202;DHT22;34843;48.744;8.958;2024-03-23T16:26:14;6.20;99.90
3202;DHT22;34843;48.744;8.958;2024-03-23T16:28:42;6.20;99.90
3202;DHT22;34843;48.744;8.958;2024-03-23T16:31:08;6.20;99.90
3202;DHT22;34843;48.744;8.958;2024-03-23T16:33:36;6.30;99.90
3202;DHT22;34843;48.744;8.958;2024-03-23T16:38:33;6.40;99.90
3202;DHT22;34843;48.744;8.958;2024-03-23T16:41:07;6.50;99.90
3202;DHT22;34843;48.744;8.958;2024-03-23T16:43:34;6.30;99.90
3202;DHT22;34843;48.744;8.958;2024-03-23T16:46:04;6.30;99.90
3202;DHT22;34843;48.744;8.958;2024-03-23T16:48:30;6.20;99.90
3202;DHT22;34843;48.744;8.958;2024-03-23T16:50:57;6.20;99.90
3202;DHT22;34843;48.744;8.958;2024-03-23T16:53:23;6.00;99.90
3202;DHT22;34843;48.744;8.958;2024-03-23T16:55:58;6.00;99.90
3202;DHT22;34843;48.744;8.958;2024-03-23T16:58:27;5.90;99.90